createdAt,value
2022-09-12T00:01:13.794Z,101172.84
2022-09-12T00:03:40.706Z,101162.69
2022-09-12T00:06:13.057Z,101165.31
2022-09-12T00:08:39.781Z,101114.16
2022-09-12T00:11:09.475Z,101187.28
2022-09-12T00:13:41.445Z,101160.53
2022-09-12T00:16:15.005Z,101086.88
2022-09-12T00:18:41.476Z,101166.16
2022-09-12T00:21:08.271Z,101161.09
2022-09-12T00:23:34.718Z,100899.97
2022-09-12T00:26:06.670Z,100883.84
2022-09-12T00:28:35.279Z,101184.19
2022-09-12T00:31:08.850Z,101185.22
2022-09-12T00:33:36.222Z,101144.16
2022-09-12T00:36:08.425Z,101187.06
2022-09-12T00:38:38.460Z,101119.66
2022-09-12T00:41:05.927Z,101028.25
2022-09-12T00:43:44.477Z,101027.47
2022-09-12T00:46:28.914Z,101180.34
2022-09-12T00:49:00.935Z,101171.44
2022-09-12T00:51:31.368Z,101167.56
2022-09-12T00:54:00.354Z,101010.03
2022-09-12T00:56:27.888Z,101138.31
2022-09-12T00:59:01.014Z,101188.69
2022-09-12T01:01:32.194Z,100929.53
2022-09-12T01:03:59.730Z,100928.75
2022-09-12T01:06:30.219Z,100985.47
2022-09-12T01:08:57.655Z,101139.28
2022-09-12T01:11:24.046Z,101128.63
2022-09-12T01:13:51.327Z,101082.66
2022-09-12T01:16:18.178Z,101064.06
2022-09-12T01:19:19.286Z,101130.56
2022-09-12T01:21:56.474Z,101133.59
2022-09-12T01:24:47.969Z,101089.72
2022-09-12T01:27:32.018Z,101142.34
2022-09-12T01:30:24.138Z,101133.91
2022-09-12T01:32:59.570Z,100908.16
2022-09-12T01:35:44.516Z,101139.47
2022-09-12T01:38:27.046Z,100888.63
2022-09-12T01:41:19.551Z,101140.25
2022-09-12T01:44:02.150Z,101126.31
2022-09-12T01:46:35.772Z,101126.25
2022-09-12T01:49:09.337Z,101130.34
2022-09-12T01:51:41.394Z,100979.88
2022-09-12T01:54:13.419Z,100914.81
2022-09-12T01:56:43.635Z,101122.72
2022-09-12T01:59:21.898Z,101119.97
2022-09-12T02:01:55.951Z,100853.75
2022-09-12T02:04:33.501Z,100914.91
2022-09-12T02:07:19.619Z,101123.16
2022-09-12T02:10:02.203Z,100873.59
2022-09-12T02:12:42.234Z,100885.50
2022-09-12T02:15:10.678Z,101102.97
2022-09-12T02:17:41.174Z,100899.75
2022-09-12T02:20:43.934Z,101085.69
2022-09-12T02:23:16.993Z,101101.00
2022-09-12T02:25:46.585Z,101093.09
2022-09-12T02:28:22.169Z,101067.47
2022-09-12T02:31:06.480Z,101096.59
2022-09-12T02:34:05.394Z,101099.31
2022-09-12T02:36:46.477Z,100911.84
2022-09-12T02:39:13.143Z,101056.75
2022-09-12T02:41:39.609Z,100998.44
2022-09-12T02:44:06.535Z,101116.75
2022-09-12T02:46:41.158Z,101011.41
2022-09-12T02:49:09.445Z,101056.03
2022-09-12T02:51:37.306Z,100967.91
2022-09-12T02:54:12.932Z,100947.28
2022-09-12T02:56:42.509Z,101079.75
2022-09-12T02:59:13.766Z,101071.88
2022-09-12T03:02:09.715Z,100843.34
2022-09-12T03:04:49.926Z,101072.94
2022-09-12T03:07:31.650Z,101052.53
2022-09-12T03:10:24.061Z,100822.50
2022-09-12T03:13:06.584Z,101067.28
2022-09-12T03:15:32.883Z,101063.59
2022-09-12T03:18:06.355Z,101061.63
2022-09-12T03:20:53.756Z,101061.56
2022-09-12T03:23:33.763Z,101057.31
2022-09-12T03:26:15.763Z,100947.22
2022-09-12T03:28:43.884Z,101058.72
2022-09-12T03:31:15.747Z,101030.91
2022-09-12T03:33:42.487Z,101010.94
2022-09-12T03:36:21.342Z,101066.75
2022-09-12T03:38:47.768Z,101041.16
2022-09-12T03:41:14.437Z,101067.06
2022-09-12T03:43:41.084Z,101004.22
2022-09-12T03:46:08.132Z,100995.66
2022-09-12T03:48:34.734Z,101067.06
2022-09-12T03:51:03.376Z,101030.56
2022-09-12T03:53:30.650Z,101067.25
2022-09-12T03:55:58.261Z,100875.97
2022-09-12T03:58:25.893Z,101064.50
2022-09-12T04:00:52.338Z,101020.38
2022-09-12T04:03:19.317Z,101025.94
2022-09-12T04:05:46.925Z,100927.34
2022-09-12T04:08:14.956Z,101009.56
2022-09-12T04:10:41.434Z,101017.44
2022-09-12T04:13:08.024Z,100795.50
2022-09-12T04:15:34.498Z,100878.38
2022-09-12T04:18:05.577Z,100898.44
2022-09-12T04:20:32.600Z,101023.63
2022-09-12T04:22:58.962Z,101005.75
2022-09-12T04:25:25.649Z,101048.34
2022-09-12T04:27:52.081Z,101035.75
2022-09-12T04:30:18.605Z,100752.63
2022-09-12T04:32:45.214Z,101042.56
2022-09-12T04:35:12.822Z,101038.31
2022-09-12T04:37:39.157Z,101016.50
2022-09-12T04:40:06.067Z,101044.88
2022-09-12T04:42:32.727Z,101029.97
2022-09-12T04:44:59.074Z,101048.81
2022-09-12T04:47:25.423Z,101025.66
2022-09-12T04:49:52.441Z,100915.09
2022-09-12T04:52:18.952Z,101037.53
2022-09-12T04:54:45.438Z,101034.00
2022-09-12T04:57:11.921Z,100739.91
2022-09-12T04:59:38.630Z,100974.09
2022-09-12T05:02:08.291Z,100989.91
2022-09-12T05:04:36.018Z,101013.44
2022-09-12T05:07:03.084Z,100983.44
2022-09-12T05:09:29.496Z,100853.75
2022-09-12T05:12:04.679Z,100979.28
2022-09-12T05:14:33.115Z,100974.78
2022-09-12T05:17:01.400Z,100860.94
2022-09-12T05:19:30.109Z,101011.56
2022-09-12T05:21:56.581Z,101015.56
2022-09-12T05:24:22.986Z,101033.66
2022-09-12T05:26:49.319Z,101006.34
2022-09-12T05:29:15.859Z,101016.25
2022-09-12T05:31:42.280Z,100847.56
2022-09-12T05:34:09.191Z,101023.09
2022-09-12T05:36:37.106Z,101016.53
2022-09-12T05:39:04.685Z,101011.69
2022-09-12T05:41:33.438Z,100988.44
2022-09-12T05:44:02.415Z,101001.25
2022-09-12T05:46:32.005Z,100988.72
2022-09-12T05:49:04.003Z,101014.69
2022-09-12T05:51:34.198Z,101016.72
2022-09-12T05:54:03.270Z,101017.22
2022-09-12T05:56:33.409Z,101021.72
2022-09-12T05:59:05.234Z,100860.16
2022-09-12T06:01:34.226Z,101026.56
2022-09-12T06:04:04.005Z,100778.13
2022-09-12T06:06:31.978Z,101011.78
2022-09-12T06:09:01.033Z,100715.06
2022-09-12T06:11:29.790Z,101029.66
2022-09-12T06:13:58.202Z,101018.56
2022-09-12T06:16:27.292Z,100848.84
2022-09-12T06:18:56.316Z,100859.03
2022-09-12T06:21:24.314Z,101036.97
2022-09-12T06:23:51.239Z,101026.34
2022-09-12T06:26:21.384Z,100963.72
2022-09-12T06:28:47.828Z,101034.88
2022-09-12T06:31:17.526Z,101033.59
2022-09-12T06:33:46.945Z,101039.16
2022-09-12T06:36:18.889Z,101021.91
2022-09-12T06:38:48.762Z,101050.06
2022-09-12T06:41:15.801Z,101058.50
2022-09-12T06:43:42.729Z,100788.38
2022-09-12T06:46:10.639Z,101041.88
2022-09-12T06:48:41.545Z,100891.13
2022-09-12T06:51:16.876Z,101035.66
2022-09-12T06:53:44.741Z,100745.22
2022-09-12T06:56:13.850Z,100852.25
2022-09-12T06:58:41.741Z,100990.47
2022-09-12T07:01:16.556Z,100799.41
2022-09-12T07:03:47.662Z,100828.31
2022-09-12T07:06:15.936Z,101041.94
2022-09-12T07:08:42.860Z,101033.41
2022-09-12T07:11:21.206Z,101036.28
2022-09-12T07:13:50.096Z,101038.09
2022-09-12T07:16:19.709Z,100828.19
2022-09-12T07:19:00.198Z,101042.44
2022-09-12T07:21:27.185Z,101040.13
2022-09-12T07:23:55.294Z,101043.09
2022-09-12T07:26:21.696Z,101047.75
2022-09-12T07:28:53.714Z,101037.31
2022-09-12T07:31:23.030Z,100860.63
2022-09-12T07:33:54.331Z,101047.56
2022-09-12T07:36:23.462Z,101049.47
2022-09-12T07:38:57.369Z,101020.22
2022-09-12T07:41:26.965Z,101039.66
2022-09-12T07:43:55.118Z,101047.78
2022-09-12T07:46:22.457Z,101041.16
2022-09-12T07:48:57.374Z,101041.66
2022-09-12T07:51:25.190Z,101027.19
2022-09-12T07:53:51.764Z,101023.34
2022-09-12T07:56:19.858Z,101029.94
2022-09-12T07:58:46.231Z,101013.56
2022-09-12T08:01:17.968Z,101032.91
2022-09-12T08:03:47.186Z,101041.88
2022-09-12T08:06:15.949Z,101019.75
2022-09-12T08:08:43.350Z,100996.28
2022-09-12T08:11:12.374Z,101035.41
2022-09-12T08:13:40.310Z,101014.75
2022-09-12T08:16:18.658Z,101040.78
2022-09-12T08:18:45.049Z,101016.13
2022-09-12T08:21:20.841Z,101049.34
2022-09-12T08:23:51.715Z,100843.91
2022-09-12T08:26:18.173Z,100916.44
2022-09-12T08:28:46.688Z,101049.97
2022-09-12T08:31:18.434Z,101023.28
2022-09-12T08:33:45.132Z,100885.50
2022-09-12T08:36:12.561Z,101050.44
2022-09-12T08:38:41.959Z,101053.25
2022-09-12T08:41:27.884Z,101062.41
2022-09-12T08:44:12.883Z,101055.00
2022-09-12T08:46:48.740Z,101066.81
2022-09-12T08:49:27.389Z,101021.44
2022-09-12T08:51:55.753Z,101062.63
2022-09-12T08:54:28.796Z,100887.31
2022-09-12T08:57:02.886Z,101053.66
2022-09-12T08:59:38.257Z,101065.63
2022-09-12T09:02:24.727Z,100858.28
2022-09-12T09:05:29.867Z,101050.50
2022-09-12T09:08:15.573Z,101049.53
2022-09-12T09:11:10.817Z,101046.75
2022-09-12T09:14:31.608Z,101042.69
2022-09-12T09:17:00.000Z,101040.09
2022-09-12T09:19:42.397Z,101040.16
2022-09-12T09:22:19.053Z,100997.97
2022-09-12T09:24:53.182Z,100868.78
2022-09-12T09:27:41.906Z,101036.50
2022-09-12T09:30:17.631Z,101041.00
2022-09-12T09:32:47.731Z,101033.41
2022-09-12T09:35:20.308Z,101037.75
2022-09-12T09:38:00.886Z,101036.06
2022-09-12T09:40:37.541Z,100878.09
2022-09-12T09:43:27.373Z,101032.41
2022-09-12T09:45:54.192Z,101020.63
2022-09-12T09:48:29.779Z,100998.28
2022-09-12T09:50:59.976Z,101000.25
2022-09-12T09:53:50.099Z,101011.59
2022-09-12T09:56:36.774Z,101014.22
2022-09-12T09:59:20.214Z,101013.75
2022-09-12T10:01:54.592Z,100995.56
2022-09-12T10:04:24.101Z,100997.41
2022-09-12T10:06:58.782Z,101001.09
2022-09-12T10:09:28.257Z,100802.00
2022-09-12T10:11:56.507Z,101004.34
2022-09-12T10:14:36.819Z,100848.56
2022-09-12T10:17:39.833Z,101007.81
2022-09-12T10:20:31.043Z,101003.97
2022-09-12T10:23:29.348Z,100824.78
2022-09-12T10:26:00.756Z,101017.91
2022-09-12T10:28:39.283Z,100998.41
2022-09-12T10:31:08.407Z,101003.28
2022-09-12T10:33:52.624Z,100965.53
2022-09-12T10:36:20.865Z,100995.09
2022-09-12T10:39:01.782Z,100993.19
2022-09-12T10:41:37.380Z,100988.56
2022-09-12T10:44:14.490Z,100988.50
2022-09-12T10:46:40.970Z,100806.91
2022-09-12T10:49:23.529Z,100981.09
2022-09-12T10:51:51.415Z,100779.72
2022-09-12T10:54:21.279Z,100866.31
2022-09-12T10:56:56.467Z,100974.41
2022-09-12T10:59:38.637Z,100790.38
2022-09-12T11:02:14.593Z,100952.88
2022-09-12T11:04:56.508Z,100966.03
2022-09-12T11:07:39.145Z,100955.47
2022-09-12T11:10:24.033Z,100803.16
2022-09-12T11:13:13.279Z,100948.03
2022-09-12T11:15:54.941Z,100956.25
2022-09-12T11:18:46.456Z,100943.09
2022-09-12T11:21:33.892Z,100946.47
2022-09-12T11:24:32.721Z,100949.94
2022-09-12T11:27:10.971Z,100943.91
2022-09-12T11:29:47.915Z,100939.72
2022-09-12T11:32:45.995Z,100941.94
2022-09-12T11:35:17.603Z,100940.66
2022-09-12T11:38:08.836Z,100928.66
2022-09-12T11:40:58.689Z,100941.66
2022-09-12T11:43:34.086Z,100937.81
2022-09-12T11:46:25.173Z,100953.91
2022-09-12T11:48:59.984Z,100924.16
2022-09-12T11:51:34.000Z,100939.66
2022-09-12T11:54:12.018Z,100856.91
2022-09-12T11:56:44.706Z,100932.78
2022-09-12T11:59:26.915Z,100936.97
2022-09-12T12:01:59.208Z,100740.66
2022-09-12T12:04:34.449Z,100777.25
2022-09-12T12:07:11.046Z,100928.25
2022-09-12T12:09:50.319Z,100919.34
2022-09-12T12:12:24.175Z,100908.25
2022-09-12T12:14:53.114Z,100919.00
2022-09-12T12:17:22.958Z,100738.41
2022-09-12T12:20:04.970Z,100914.28
2022-09-12T12:22:33.703Z,100790.03
2022-09-12T12:25:06.751Z,100910.16
2022-09-12T12:27:53.514Z,100911.28
2022-09-12T12:30:28.932Z,100903.16
2022-09-12T12:33:12.956Z,100896.91
2022-09-12T12:35:47.762Z,100897.53
2022-09-12T12:38:38.272Z,100904.41
2022-09-12T12:41:16.961Z,100892.13
2022-09-12T12:43:46.715Z,100732.25
2022-09-12T12:46:15.082Z,100861.72
2022-09-12T12:49:09.679Z,100876.47
2022-09-12T12:51:49.307Z,100700.31
2022-09-12T12:54:41.520Z,100864.00
2022-09-12T12:57:26.516Z,100869.84
2022-09-12T13:00:00.887Z,100873.34
2022-09-12T13:02:32.377Z,100708.19
2022-09-12T13:05:02.486Z,100853.63
2022-09-12T13:07:39.549Z,100559.31
2022-09-12T13:10:07.862Z,100850.94
2022-09-12T13:12:37.853Z,100862.75
2022-09-12T13:15:25.118Z,100653.72
2022-09-12T13:17:52.014Z,100852.63
2022-09-12T13:20:30.086Z,100865.84
2022-09-12T13:22:57.373Z,100875.00
2022-09-12T13:25:28.745Z,100872.47
2022-09-12T13:28:01.066Z,100731.31
2022-09-12T13:30:31.272Z,100886.66
2022-09-12T13:33:03.634Z,100742.97
2022-09-12T13:35:43.321Z,100835.78
2022-09-12T13:38:31.471Z,100862.53
2022-09-12T13:41:09.646Z,100854.13
2022-09-12T13:43:46.926Z,100713.50
2022-09-12T13:46:17.570Z,100854.16
2022-09-12T13:48:44.474Z,100726.78
2022-09-12T13:51:23.557Z,100839.66
2022-09-12T13:53:52.217Z,100847.72
2022-09-12T13:56:20.415Z,100845.03
2022-09-12T13:58:57.495Z,100844.56
2022-09-12T14:01:36.530Z,100829.88
2022-09-12T14:04:33.913Z,100832.88
2022-09-12T14:07:03.794Z,100829.69
2022-09-12T14:09:38.507Z,100852.94
2022-09-12T14:12:20.485Z,100832.81
2022-09-12T14:14:49.908Z,100809.19
2022-09-12T14:17:29.718Z,100821.69
2022-09-12T14:19:59.348Z,100818.41
2022-09-12T14:22:29.790Z,100828.44
2022-09-12T14:24:58.636Z,100591.34
2022-09-12T14:27:29.105Z,100667.03
2022-09-12T14:30:02.989Z,100652.06
2022-09-12T14:32:29.546Z,100798.84
2022-09-12T14:35:25.245Z,100800.97
2022-09-12T14:37:51.888Z,100749.25
2022-09-12T14:40:21.503Z,100631.63
2022-09-12T14:42:50.337Z,100791.31
2022-09-12T14:45:28.853Z,100804.44
2022-09-12T14:47:56.776Z,100781.00
2022-09-12T14:50:29.625Z,100783.66
2022-09-12T14:53:06.963Z,100637.50
2022-09-12T14:55:42.220Z,100805.69
2022-09-12T14:58:20.489Z,100790.72
2022-09-12T15:01:23.180Z,100788.69
2022-09-12T15:03:53.272Z,100795.59
2022-09-12T15:06:28.784Z,100791.75
2022-09-12T15:08:57.297Z,100785.75
2022-09-12T15:11:24.110Z,100778.22
2022-09-12T15:13:50.514Z,100556.53
2022-09-12T15:16:17.378Z,100636.84
2022-09-12T15:18:43.751Z,100734.31
2022-09-12T15:21:16.507Z,100778.47
2022-09-12T15:23:50.736Z,100719.59
2022-09-12T15:26:19.668Z,100775.88
2022-09-12T15:28:46.425Z,100611.50
2022-09-12T15:31:24.577Z,100646.22
2022-09-12T15:33:51.051Z,100772.28
2022-09-12T15:36:20.585Z,100768.13
2022-09-12T15:38:47.997Z,100775.50
2022-09-12T15:41:30.310Z,100773.31
2022-09-12T15:43:57.145Z,100611.53
2022-09-12T15:46:23.835Z,100580.88
2022-09-12T15:48:50.319Z,100770.94
2022-09-12T15:51:21.484Z,100750.72
2022-09-12T15:53:49.329Z,100680.53
2022-09-12T15:56:17.251Z,100776.88
2022-09-12T15:58:57.587Z,100767.00
2022-09-12T16:01:25.338Z,100718.94
2022-09-12T16:03:51.968Z,100764.19
2022-09-12T16:06:18.294Z,100766.03
2022-09-12T16:08:44.679Z,100637.38
2022-09-12T16:11:19.583Z,100764.03
2022-09-12T16:13:45.941Z,100621.78
2022-09-12T16:16:12.394Z,100740.44
2022-09-12T16:18:42.001Z,100717.94
2022-09-12T16:21:12.779Z,100748.94
2022-09-12T16:23:45.604Z,100741.09
2022-09-12T16:26:12.122Z,100731.69
2022-09-12T16:28:38.855Z,100741.38
2022-09-12T16:31:07.625Z,100759.84
2022-09-12T16:33:34.355Z,100746.25
2022-09-12T16:36:12.309Z,100733.88
2022-09-12T16:38:43.549Z,100735.72
2022-09-12T16:41:10.621Z,100542.59
2022-09-12T16:43:37.486Z,100520.44
2022-09-12T16:46:11.438Z,100737.41
2022-09-12T16:48:42.312Z,100628.63
2022-09-12T16:51:08.729Z,100702.72
2022-09-12T16:53:37.085Z,100738.91
2022-09-12T16:56:05.195Z,100735.88
2022-09-12T16:58:48.202Z,100718.81
2022-09-12T17:01:18.012Z,100716.59
2022-09-12T17:03:44.808Z,100597.56
2022-09-12T17:06:13.363Z,100724.84
2022-09-12T17:08:42.867Z,100730.97
2022-09-12T17:11:12.729Z,100731.81
2022-09-12T17:14:02.612Z,100712.66
2022-09-12T17:16:27.378Z,100693.19
2022-09-12T17:18:54.830Z,100741.28
2022-09-12T17:21:21.805Z,100741.13
2022-09-12T17:23:49.015Z,100731.84
2022-09-12T17:26:15.858Z,100736.69
2022-09-12T17:28:42.762Z,100662.66
2022-09-12T17:31:11.700Z,100721.47
2022-09-12T17:33:38.984Z,100586.66
2022-09-12T17:36:09.114Z,100666.03
2022-09-12T17:38:37.310Z,100749.63
2022-09-12T17:41:15.993Z,100730.31
2022-09-12T17:43:42.899Z,100520.59
2022-09-12T17:46:09.822Z,100447.44
2022-09-12T17:48:36.279Z,100733.38
2022-09-12T17:51:10.610Z,100730.63
2022-09-12T17:53:37.341Z,100683.03
2022-09-12T17:56:05.322Z,100728.44
2022-09-12T17:58:33.214Z,100673.09
2022-09-12T18:01:26.957Z,100741.78
2022-09-12T18:03:55.522Z,100739.63
2022-09-12T18:06:23.032Z,100773.41
2022-09-12T18:08:49.362Z,100548.69
2022-09-12T18:11:15.958Z,100740.31
2022-09-12T18:13:42.366Z,100582.44
2022-09-12T18:16:10.914Z,100695.88
2022-09-12T18:18:38.432Z,100734.44
2022-09-12T18:21:06.844Z,100732.47
2022-09-12T18:23:33.880Z,100523.66
2022-09-12T18:26:02.840Z,100622.28
2022-09-12T18:28:29.362Z,100575.53
2022-09-12T18:30:55.755Z,100739.44
2022-09-12T18:33:24.194Z,100707.78
2022-09-12T18:35:50.962Z,100684.50
2022-09-12T18:38:17.577Z,100736.91
2022-09-12T18:40:43.982Z,100553.53
2022-09-12T18:43:10.370Z,100734.28
2022-09-12T18:45:36.846Z,100546.25
2022-09-12T18:48:06.084Z,100732.75
2022-09-12T18:50:32.996Z,100735.84
2022-09-12T18:52:59.976Z,100721.72
2022-09-12T18:55:26.646Z,100716.25
2022-09-12T18:57:54.786Z,100556.03
2022-09-12T19:00:21.516Z,100700.97
2022-09-12T19:02:47.918Z,100687.78
2022-09-12T19:05:14.351Z,100540.19
2022-09-12T19:07:41.154Z,100729.56
2022-09-12T19:10:10.501Z,100717.22
2022-09-12T19:12:36.870Z,100699.97
2022-09-12T19:15:04.080Z,100712.75
2022-09-12T19:17:31.041Z,100546.84
2022-09-12T19:19:57.424Z,100489.13
2022-09-12T19:22:23.924Z,100583.59
2022-09-12T19:24:50.288Z,100658.72
2022-09-12T19:27:16.714Z,100652.97
2022-09-12T19:29:43.181Z,100732.69
2022-09-12T19:32:09.552Z,100721.22
2022-09-12T19:34:35.938Z,100729.50
2022-09-12T19:37:02.415Z,100550.75
2022-09-12T19:39:28.881Z,100727.53
2022-09-12T19:41:55.262Z,100674.75
2022-09-12T19:44:21.804Z,100692.28
2022-09-12T19:46:48.450Z,100654.69
2022-09-12T19:49:15.009Z,100695.50
2022-09-12T19:51:41.455Z,100652.75
2022-09-12T19:54:08.065Z,100672.38
2022-09-12T19:56:34.468Z,100539.00
2022-09-12T19:59:00.829Z,100690.31
2022-09-12T20:01:28.489Z,100732.94
2022-09-12T20:03:56.237Z,100640.75
2022-09-12T20:06:22.713Z,100723.41
2022-09-12T20:08:49.360Z,100723.41
2022-09-12T20:11:18.149Z,100737.56
2022-09-12T20:13:45.715Z,100743.72
2022-09-12T20:16:21.015Z,100742.03
2022-09-12T20:18:52.125Z,100561.44
2022-09-12T20:21:20.681Z,100736.72
2022-09-12T20:23:47.562Z,100736.84
2022-09-12T20:26:13.951Z,100729.88
2022-09-12T20:28:41.489Z,100684.16
2022-09-12T20:31:11.995Z,100723.81
2022-09-12T20:33:39.053Z,100529.94
2022-09-12T20:36:09.730Z,100742.44
2022-09-12T20:38:36.540Z,100731.94
2022-09-12T20:41:06.272Z,100677.63
2022-09-12T20:43:32.859Z,100689.16
2022-09-12T20:45:59.410Z,100597.66
2022-09-12T20:48:25.897Z,100610.84
2022-09-12T20:50:52.331Z,100727.13
2022-09-12T20:53:18.773Z,100731.28
2022-09-12T20:55:52.314Z,100737.97
2022-09-12T20:58:20.368Z,100705.78
2022-09-12T21:00:47.343Z,100697.13
2022-09-12T21:03:14.804Z,100691.38
2022-09-12T21:05:44.909Z,100632.88
2022-09-12T21:08:50.378Z,100679.69
2022-09-12T21:11:18.547Z,100682.47
2022-09-12T21:13:45.133Z,100501.88
2022-09-12T21:16:13.985Z,100659.63
2022-09-12T21:18:41.181Z,100686.63
2022-09-12T21:21:09.255Z,100680.16
2022-09-12T21:23:35.734Z,100681.41
2022-09-12T21:26:03.136Z,100684.44
2022-09-12T21:28:29.606Z,100671.22
2022-09-12T21:30:56.029Z,100651.03
2022-09-12T21:33:23.434Z,100689.75
2022-09-12T21:35:50.253Z,100524.88
2022-09-12T21:38:18.142Z,100693.63
2022-09-12T21:40:45.305Z,100517.53
2022-09-12T21:43:12.936Z,100663.59
2022-09-12T21:45:39.794Z,100684.81
2022-09-12T21:48:06.177Z,100680.63
2022-09-12T21:50:32.534Z,100668.38
2022-09-12T21:52:58.913Z,100490.50
2022-09-12T21:55:27.321Z,100662.28
2022-09-12T21:57:54.770Z,100682.75
2022-09-12T22:00:22.388Z,100661.09
2022-09-12T22:02:48.957Z,100657.97
2022-09-12T22:05:16.098Z,100411.28
2022-09-12T22:07:42.569Z,100635.97
2022-09-12T22:10:09.361Z,100448.09
2022-09-12T22:12:35.875Z,100391.72
2022-09-12T22:15:17.554Z,100694.06
2022-09-12T22:17:48.826Z,100692.72
2022-09-12T22:20:15.287Z,100699.25
2022-09-12T22:23:00.341Z,100503.94
2022-09-12T22:25:26.836Z,100655.44
2022-09-12T22:27:54.402Z,100696.63
2022-09-12T22:30:22.449Z,100699.56
2022-09-12T22:32:50.389Z,100673.81
2022-09-12T22:35:18.377Z,100708.03
2022-09-12T22:37:46.881Z,100713.69
2022-09-12T22:40:13.416Z,100474.25
2022-09-12T22:42:40.379Z,100721.69
2022-09-12T22:45:07.638Z,100721.19
2022-09-12T22:47:34.038Z,100735.66
2022-09-12T22:50:00.412Z,100710.47
2022-09-12T22:52:26.990Z,100597.75
2022-09-12T22:54:53.479Z,100464.09
2022-09-12T22:57:19.874Z,100655.06
2022-09-12T22:59:46.567Z,100710.16
2022-09-12T23:02:12.904Z,100710.53
2022-09-12T23:04:39.794Z,100697.88
2022-09-12T23:07:06.563Z,100500.75
2022-09-12T23:09:35.395Z,100486.94
2022-09-12T23:12:02.560Z,100678.91
2022-09-12T23:14:29.132Z,100487.13
2022-09-12T23:16:55.640Z,100460.91
2022-09-12T23:19:21.982Z,100690.13
2022-09-12T23:21:48.354Z,100668.91
2022-09-12T23:24:14.753Z,100370.53
2022-09-12T23:26:41.100Z,100683.97
2022-09-12T23:29:10.444Z,100478.47
2022-09-12T23:31:36.974Z,100664.72
2022-09-12T23:34:05.807Z,100677.94
2022-09-12T23:36:33.493Z,100406.53
2022-09-12T23:39:00.087Z,100647.22
2022-09-12T23:41:26.645Z,100698.16
2022-09-12T23:43:53.127Z,100660.47
2022-09-12T23:46:20.221Z,100674.06
2022-09-12T23:48:46.839Z,100662.03
2022-09-12T23:51:13.942Z,100671.19
2022-09-12T23:53:41.016Z,100665.16
2022-09-12T23:56:08.209Z,100685.63
2022-09-12T23:58:34.638Z,100678.03
